Time;durP1;ratioP1;P1;durP2;ratioP2;P2;SDS_P1;SDS_P2;PMS_P1;PMS_P2;Temp;Humidity;BMP_temperature;BMP_pressure;BME280_temperature;BME280_humidity;BME280_pressure;Samples;Min_cycle;Max_cycle;Signal;HPM_P1;HPM_P2
2022/12/04 00:01:29;;;;;;;;;;;;;;;14.22;48.58;102455.02;102083;1320;74507;-84
2022/12/04 00:03:58;;;;;;;;;;;;;;;14.22;48.62;102453.60;102034;1329;61271;-83
2022/12/04 00:06:25;;;;;;;;;;;;;;;14.22;48.66;102454.30;101972;1329;61221;-83
2022/12/04 00:09:13;;;;;;;;;;;;;;;14.22;48.53;102453.96;101985;1330;73768;-83
2022/12/04 00:11:39;;;;;;;;;;;;;;;14.22;48.56;102455.73;101797;1335;75680;-84
2022/12/04 00:14:05;;;;;;;;;;;;;;;14.21;48.57;102453.42;101741;1334;61356;-83
2022/12/04 00:16:30;;;;;;;;;;;;;;;14.22;48.58;102451.48;101766;1339;61380;-83
2022/12/04 00:18:56;;;;;;;;;;;;;;;14.21;48.58;102453.08;101746;1335;61345;-84
2022/12/04 00:21:22;;;;;;;;;;;;;;;14.21;48.62;102449.19;101759;1334;61456;-84
2022/12/04 00:23:47;;;;;;;;;;;;;;;14.21;48.60;102451.66;101756;1342;61370;-83
2022/12/04 00:26:22;;;;;;;;;;;;;;;14.21;48.58;102452.02;101771;1326;61460;-83
2022/12/04 00:28:47;;;;;;;;;;;;;;;14.21;48.60;102455.73;101747;1335;61516;-84
2022/12/04 00:31:13;;;;;;;;;;;;;;;14.21;48.58;102452.56;101787;1335;61314;-84
2022/12/04 00:33:39;;;;;;;;;;;;;;;14.20;48.61;102454.69;101773;1338;61317;-86
2022/12/04 00:36:05;;;;;;;;;;;;;;;14.20;48.59;102457.52;101756;1326;61581;-84
2022/12/04 00:38:31;;;;;;;;;;;;;;;14.21;48.64;102456.82;101749;1335;61415;-84
2022/12/04 00:40:56;;;;;;;;;;;;;;;14.21;48.58;102460.89;101832;1335;61402;-84
2022/12/04 00:43:22;;;;;;;;;;;;;;;14.20;48.64;102457.88;101787;1338;61339;-84
2022/12/04 00:45:48;;;;;;;;;;;;;;;14.20;48.55;102452.92;101765;1335;60466;-84
2022/12/04 00:48:16;;;;;;;;;;;;;;;14.20;48.55;102452.04;101799;1333;61415;-84
2022/12/04 00:50:42;;;;;;;;;;;;;;;14.20;48.65;102449.40;102108;1329;61224;-83
2022/12/04 00:53:08;;;;;;;;;;;;;;;14.20;48.58;102449.23;102039;1331;61463;-83
2022/12/04 00:55:38;;;;;;;;;;;;;;;14.20;48.65;102447.45;101980;1332;61315;-84
2022/12/04 00:58:06;;;;;;;;;;;;;;;14.20;48.57;102447.63;101965;1328;61214;-84
2022/12/04 01:00:33;;;;;;;;;;;;;;;14.19;48.61;102444.80;102104;1326;61273;-84
2022/12/04 01:02:59;;;;;;;;;;;;;;;14.19;48.57;102448.33;101945;1335;71342;-83
2022/12/04 01:05:24;;;;;;;;;;;;;;;14.19;48.52;102443.38;102066;1333;61331;-84
2022/12/04 01:07:49;;;;;;;;;;;;;;;14.19;48.61;102441.06;102081;1327;61740;-84
2022/12/04 01:10:15;;;;;;;;;;;;;;;14.19;48.64;102437.36;101976;1333;61279;-84
2022/12/04 01:12:43;;;;;;;;;;;;;;;14.19;48.57;102438.08;102020;1329;61402;-84
2022/12/04 01:15:09;;;;;;;;;;;;;;;14.19;48.60;102442.33;102119;1329;73558;-84
2022/12/04 01:17:34;;;;;;;;;;;;;;;14.19;48.53;102439.13;102093;1329;61367;-85
2022/12/04 01:20:00;;;;;;;;;;;;;;;14.19;48.59;102443.91;102003;1330;61355;-83
2022/12/04 01:22:25;;;;;;;;;;;;;;;14.18;48.61;102436.66;102001;1329;61459;-84
2022/12/04 01:24:54;;;;;;;;;;;;;;;14.18;48.58;102441.98;102103;1327;61306;-84
2022/12/04 01:27:19;;;;;;;;;;;;;;;14.18;48.61;102448.17;102080;1326;72630;-83
2022/12/04 01:29:44;;;;;;;;;;;;;;;14.18;48.58;102452.06;102035;1330;61390;-84
2022/12/04 01:32:10;;;;;;;;;;;;;;;14.18;48.59;102452.25;101984;1336;61744;-83
2022/12/04 01:34:36;;;;;;;;;;;;;;;14.18;48.62;102450.83;101983;1329;61333;-82
2022/12/04 01:37:02;;;;;;;;;;;;;;;14.18;48.60;102448.71;102091;1328;61220;-83
2022/12/04 01:39:27;;;;;;;;;;;;;;;14.17;48.61;102444.12;102085;1320;61373;-84
2022/12/04 01:41:53;;;;;;;;;;;;;;;14.17;48.60;102443.59;101974;1330;61394;-84
2022/12/04 01:44:19;;;;;;;;;;;;;;;14.17;48.61;102445.72;102074;1329;61419;-84
2022/12/04 01:46:54;;;;;;;;;;;;;;;14.17;48.58;102446.96;102077;1329;61182;-84
2022/12/04 01:49:24;;;;;;;;;;;;;;;14.17;48.65;102446.95;101932;1333;72627;-83
2022/12/04 01:51:54;;;;;;;;;;;;;;;14.17;48.63;102446.26;102086;1329;75428;-84
2022/12/04 01:54:31;;;;;;;;;;;;;;;14.17;48.61;102444.83;102066;1330;61186;-83
2022/12/04 01:57:07;;;;;;;;;;;;;;;14.17;48.59;102446.25;102103;1329;61337;-84
2022/12/04 01:59:34;;;;;;;;;;;;;;;14.17;48.66;102439.17;102046;1333;73443;-84
2022/12/04 02:02:02;;;;;;;;;;;;;;;14.17;48.62;102440.23;102094;1329;74520;-84
2022/12/04 02:04:28;;;;;;;;;;;;;;;14.17;48.67;102437.94;102081;1321;61199;-83
2022/12/04 02:06:53;;;;;;;;;;;;;;;14.17;48.61;102434.73;102016;1327;61315;-83
2022/12/04 02:09:20;;;;;;;;;;;;;;;14.17;48.59;102433.67;102082;1317;61304;-84
2022/12/04 02:11:51;;;;;;;;;;;;;;;14.17;48.61;102431.02;101956;1326;61267;-84
2022/12/04 02:14:19;;;;;;;;;;;;;;;14.16;48.62;102426.60;102121;1328;61181;-84
2022/12/04 02:16:47;;;;;;;;;;;;;;;14.16;48.62;102421.65;101967;1336;61215;-85
2022/12/04 02:19:33;;;;;;;;;;;;;;;14.16;48.71;102421.82;102073;1326;72580;-84
2022/12/04 02:22:01;;;;;;;;;;;;;;;14.16;48.68;102428.73;102078;1326;74513;-84
2022/12/04 02:24:56;;;;;;;;;;;;;;;14.16;48.72;102422.71;101997;1329;61337;-84
2022/12/04 02:27:24;;;;;;;;;;;;;;;14.16;48.65;102426.95;101825;1333;61394;-84
2022/12/04 02:30:03;;;;;;;;;;;;;;;14.16;48.62;102428.91;101806;1326;72436;-84
2022/12/04 02:32:59;;;;;;;;;;;;;;;14.16;48.62;102432.45;101731;1336;75626;-84
2022/12/04 02:35:24;;;;;;;;;;;;;;;14.16;48.67;102424.48;101772;1341;61195;-82
2022/12/04 02:37:52;;;;;;;;;;;;;;;14.16;48.63;102424.31;101789;1335;61430;-83
2022/12/04 02:40:30;;;;;;;;;;;;;;;14.15;48.70;102425.02;101733;1326;72638;-83
2022/12/04 02:43:03;;;;;;;;;;;;;;;14.16;48.71;102431.39;101752;1333;74523;-83
2022/12/04 02:45:29;;;;;;;;;;;;;;;14.16;48.65;102434.05;101735;1335;61192;-84
2022/12/04 02:47:55;;;;;;;;;;;;;;;14.16;48.67;102433.70;101773;1342;61213;-85
2022/12/04 02:50:21;;;;;;;;;;;;;;;14.15;48.69;102433.52;101765;1335;61383;-84
2022/12/04 02:52:50;;;;;;;;;;;;;;;14.15;48.70;102431.76;101721;1335;61421;-83
2022/12/04 02:55:19;;;;;;;;;;;;;;;14.15;48.70;102429.10;101802;1339;59984;-83
2022/12/04 02:57:45;;;;;;;;;;;;;;;14.15;48.66;102420.78;101742;1335;61232;-84
2022/12/04 03:00:11;;;;;;;;;;;;;;;14.15;48.67;102424.69;101718;1335;73433;-84
2022/12/04 03:02:38;;;;;;;;;;;;;;;14.15;48.69;102423.27;101752;1342;61885;-84
2022/12/04 03:05:08;;;;;;;;;;;;;;;14.15;48.68;102422.73;101958;1329;61620;-84
2022/12/04 03:07:37;;;;;;;;;;;;;;;14.15;48.69;102421.32;101990;1329;61753;-84
2022/12/04 03:10:04;;;;;;;;;;;;;;;14.14;48.75;102424.69;101993;1329;71402;-84
2022/12/04 03:12:42;;;;;;;;;;;;;;;14.15;48.74;102430.71;102090;1327;75511;-85
2022/12/04 03:15:11;;;;;;;;;;;;;;;14.14;48.70;102441.52;102106;1326;61192;-83
2022/12/04 03:17:38;;;;;;;;;;;;;;;14.14;48.71;102442.41;102001;1329;61326;-84
2022/12/04 03:20:04;;;;;;;;;;;;;;;14.14;48.75;102438.85;101983;1329;73551;-84
2022/12/04 03:22:30;;;;;;;;;;;;;;;14.14;48.74;102435.33;102044;1327;61395;-84
2022/12/04 03:24:55;;;;;;;;;;;;;;;14.14;48.69;102430.55;102003;1332;61254;-84
2022/12/04 03:27:27;;;;;;;;;;;;;;;14.13;48.81;102434.27;102073;1326;61283;-83
2022/12/04 03:29:54;;;;;;;;;;;;;;;14.13;48.73;102433.20;102083;1328;72305;-83
2022/12/04 03:32:26;;;;;;;;;;;;;;;14.13;48.75;102433.74;102010;1327;73385;-84
2022/12/04 03:35:06;;;;;;;;;;;;;;;14.13;48.75;102433.74;102018;1329;61411;-84
2022/12/04 03:37:31;;;;;;;;;;;;;;;14.13;48.66;102432.34;102023;1329;61219;-84
2022/12/04 03:40:02;;;;;;;;;;;;;;;14.13;48.79;102426.31;102059;1329;61309;-84
2022/12/04 03:42:51;;;;;;;;;;;;;;;14.13;48.68;102424.37;102001;1329;75558;-84
2022/12/04 03:45:24;;;;;;;;;;;;;;;14.13;48.73;102418.88;102040;1326;61157;-84
2022/12/04 03:47:54;;;;;;;;;;;;;;;14.13;48.76;102428.42;101993;1333;61208;-83
2022/12/04 03:50:32;;;;;;;;;;;;;;;14.13;48.72;102437.29;101986;1328;71595;-84
2022/12/04 03:53:16;;;;;;;;;;;;;;;14.12;48.71;102441.90;102046;1324;74594;-83
2022/12/04 03:55:46;;;;;;;;;;;;;;;14.13;48.77;102439.05;102111;1325;61225;-83
2022/12/04 03:58:17;;;;;;;;;;;;;;;14.13;48.77;102437.29;102017;1334;61214;-83
2022/12/04 04:00:43;;;;;;;;;;;;;;;14.13;48.78;102436.75;102006;1333;72620;-83
2022/12/04 04:03:08;;;;;;;;;;;;;;;14.12;48.75;102434.99;102049;1329;61884;-83
2022/12/04 04:05:34;;;;;;;;;;;;;;;14.12;48.83;102436.06;102066;1327;61326;-83
2022/12/04 04:08:24;;;;;;;;;;;;;;;14.12;48.72;102440.66;102000;1329;61299;-83
2022/12/04 04:10:45;;;;;;;;;;;;;;;14.13;48.74;102443.30;102078;1329;73609;-83
2022/12/04 04:24:15;;;;;;;;;;;;;;;14.12;48.75;102434.29;102075;1329;75613;-83
2022/12/04 04:27:04;;;;;;;;;;;;;;;14.11;48.73;102432.52;102056;1329;61398;-84
2022/12/04 04:29:29;;;;;;;;;;;;;;;14.12;48.82;102429.16;101836;1335;61343;-83
2022/12/04 04:32:04;;;;;;;;;;;;;;;14.12;48.79;102427.55;101753;1320;61418;-83
2022/12/04 04:34:35;;;;;;;;;;;;;;;14.12;48.81;102431.98;101825;1333;74353;-83
2022/12/04 04:37:21;;;;;;;;;;;;;;;14.11;48.74;102436.24;101823;1335;61205;-82
2022/12/04 04:39:51;;;;;;;;;;;;;;;14.11;48.84;102438.55;101824;1335;61171;-83
2022/12/04 04:42:21;;;;;;;;;;;;;;;14.11;48.83;102438.02;101778;1341;73613;-84
2022/12/04 04:44:56;;;;;;;;;;;;;;;14.11;48.79;102431.30;101755;1337;75559;-83
2022/12/04 04:47:25;;;;;;;;;;;;;;;14.11;48.78;102429.35;101777;1334;61207;-84
2022/12/04 04:49:50;;;;;;;;;;;;;;;14.11;48.79;102435.37;101762;1341;61210;-84
2022/12/04 04:52:16;;;;;;;;;;;;;;;14.11;48.81;102432.00;101769;1336;61445;-84
2022/12/04 04:54:41;;;;;;;;;;;;;;;14.11;48.85;102434.30;101754;1340;61427;-83
2022/12/04 04:57:07;;;;;;;;;;;;;;;14.11;48.79;102438.02;101788;1336;61314;-83
2022/12/04 04:59:33;;;;;;;;;;;;;;;14.11;48.80;102439.09;101816;1334;61433;-83
2022/12/04 05:01:58;;;;;;;;;;;;;;;14.10;48.78;102438.39;101832;1336;61409;-83
2022/12/04 05:04:24;;;;;;;;;;;;;;;14.10;48.76;102441.57;101755;1334;61261;-83
2022/12/04 05:06:49;;;;;;;;;;;;;;;14.10;48.81;102443.88;101901;1327;61335;-83
2022/12/04 05:09:15;;;;;;;;;;;;;;;14.11;48.76;102439.81;101985;1330;61320;-84
2022/12/04 05:11:40;;;;;;;;;;;;;;;14.10;48.80;102430.59;102012;1329;61389;-84
2022/12/04 05:14:07;;;;;;;;;;;;;;;14.10;48.77;102426.53;102086;1329;61323;-84
2022/12/04 05:16:33;;;;;;;;;;;;;;;14.10;48.78;102432.37;102080;1334;72515;-84
2022/12/04 05:21:44;;;;;;;;;;;;;;;14.09;48.87;102432.91;102069;1334;61129;-84
2022/12/04 05:24:09;;;;;;;;;;;;;;;14.09;48.81;102431.50;101980;1330;61344;-83
2022/12/04 05:26:34;;;;;;;;;;;;;;;14.09;48.84;102429.02;102096;1326;61110;-84
2022/12/04 05:29:00;;;;;;;;;;;;;;;14.08;48.78;102427.98;101983;1329;61273;-84
2022/12/04 05:31:25;;;;;;;;;;;;;;;14.08;48.79;102430.63;102043;1329;61360;-83
2022/12/04 05:33:51;;;;;;;;;;;;;;;14.08;48.83;102432.76;102001;1335;61333;-83
2022/12/04 05:36:16;;;;;;;;;;;;;;;14.07;48.80;102432.59;101953;1329;61292;-83
2022/12/04 05:38:41;;;;;;;;;;;;;;;14.08;48.78;102439.83;101974;1336;61329;-83
2022/12/04 05:41:07;;;;;;;;;;;;;;;14.08;48.83;102438.60;101908;1330;61479;-84
2022/12/04 05:43:33;;;;;;;;;;;;;;;14.08;48.80;102446.74;102126;1326;61301;-84
2022/12/04 05:46:05;;;;;;;;;;;;;;;14.08;48.81;102449.05;101963;1329;61384;-84
2022/12/04 05:48:31;;;;;;;;;;;;;;;14.08;48.87;102455.59;102015;1329;61319;-84
2022/12/04 05:50:56;;;;;;;;;;;;;;;14.07;48.80;102458.42;102067;1329;61413;-83
2022/12/04 05:53:22;;;;;;;;;;;;;;;14.08;48.85;102458.95;101492;1334;809683;-84
2022/12/04 05:55:57;;;;;;;;;;;;;;;14.07;48.81;102460.91;101991;1329;61424;-84
2022/12/04 05:58:22;;;;;;;;;;;;;;;14.08;48.85;102462.67;101962;1329;61322;-83
2022/12/04 06:00:48;;;;;;;;;;;;;;;14.07;48.86;102458.95;101877;1329;61389;-84
2022/12/04 06:03:13;;;;;;;;;;;;;;;14.08;48.89;102458.25;101974;1334;59360;-84
2022/12/04 06:05:38;;;;;;;;;;;;;;;14.07;48.86;102456.66;101994;1327;61357;-84
2022/12/04 06:08:04;;;;;;;;;;;;;;;14.08;48.84;102463.03;101991;1313;59696;-83
2022/12/04 06:10:29;;;;;;;;;;;;;;;14.08;48.86;102472.05;101882;1329;61364;-84
2022/12/04 06:12:56;;;;;;;;;;;;;;;14.09;48.85;102471.15;101973;1329;61381;-83
2022/12/04 06:15:22;;;;;;;;;;;;;;;14.09;48.87;102472.23;101971;1323;61363;-83
2022/12/04 06:17:47;;;;;;;;;;;;;;;14.09;48.93;102473.99;102016;1332;61273;-83
2022/12/04 06:20:13;;;;;;;;;;;;;;;14.09;48.88;102477.70;102093;1329;61266;-83
2022/12/04 06:22:38;;;;;;;;;;;;;;;14.09;48.92;102477.88;102138;1329;61426;-83
2022/12/04 06:25:04;;;;;;;;;;;;;;;14.09;48.89;102476.64;102020;1327;72610;-85
2022/12/04 06:27:29;;;;;;;;;;;;;;;14.08;48.88;102479.66;101969;1317;61433;-83
2022/12/04 06:29:55;;;;;;;;;;;;;;;14.08;48.94;102487.63;102080;1333;61287;-84
2022/12/04 06:32:20;;;;;;;;;;;;;;;14.08;48.89;102491.19;101988;1326;61403;-83
2022/12/04 06:34:45;;;;;;;;;;;;;;;14.08;48.95;102494.20;102028;1329;61309;-83
2022/12/04 06:37:11;;;;;;;;;;;;;;;14.08;48.89;102489.95;101987;1336;61283;-83
2022/12/04 06:39:36;;;;;;;;;;;;;;;14.08;48.95;102499.33;102049;1323;61381;-84
2022/12/04 06:42:02;;;;;;;;;;;;;;;14.09;48.91;102501.61;102003;1333;61332;-83
2022/12/04 06:44:27;;;;;;;;;;;;;;;14.08;48.87;102502.16;102062;1329;61459;-83
2022/12/04 06:46:52;;;;;;;;;;;;;;;14.08;48.92;102498.09;102008;1326;61405;-83
2022/12/04 06:49:21;;;;;;;;;;;;;;;14.08;48.85;102498.81;101959;1329;61332;-83
2022/12/04 06:51:46;;;;;;;;;;;;;;;14.08;48.91;102499.16;102069;1326;75591;-83
2022/12/04 06:54:12;;;;;;;;;;;;;;;14.07;48.90;102492.25;102113;1326;60006;-83
2022/12/04 06:57:01;;;;;;;;;;;;;;;14.07;48.93;102495.96;102001;1329;61427;-84
2022/12/04 06:59:26;;;;;;;;;;;;;;;14.08;48.95;102506.24;101826;1333;73526;-83
2022/12/04 07:01:52;;;;;;;;;;;;;;;14.08;48.90;102507.28;101818;1336;61330;-83
2022/12/04 07:04:17;;;;;;;;;;;;;;;14.08;48.92;102505.52;101742;1334;61617;-82
2022/12/04 07:06:43;;;;;;;;;;;;;;;14.08;48.88;102504.46;101762;1335;61350;-83
2022/12/04 07:09:10;;;;;;;;;;;;;;;14.08;48.95;102501.28;101764;1340;61365;-83
2022/12/04 07:11:36;;;;;;;;;;;;;;;14.07;48.89;102502.52;101758;1339;73637;-82
2022/12/04 07:14:01;;;;;;;;;;;;;;;14.08;48.94;102505.71;101776;1339;61229;-83
2022/12/04 07:16:52;;;;;;;;;;;;;;;14.08;49.00;102500.58;101763;1335;61324;-83
2022/12/04 07:19:18;;;;;;;;;;;;;;;14.08;48.94;102495.44;101458;1344;61404;-83
2022/12/04 07:21:43;;;;;;;;;;;;;;;14.07;48.93;102496.32;101356;1347;61323;-84
2022/12/04 07:24:10;;;;;;;;;;;;;;;14.08;48.95;102495.80;101335;1347;61375;-84
2022/12/04 07:26:36;;;;;;;;;;;;;;;14.08;48.93;102498.27;101470;1345;61314;-83
2022/12/04 07:29:01;;;;;;;;;;;;;;;14.08;48.94;102497.73;101448;1340;61341;-83
2022/12/04 07:31:27;;;;;;;;;;;;;;;14.08;48.87;102501.27;101276;1341;61300;-83
2022/12/04 07:33:53;;;;;;;;;;;;;;;14.08;48.98;102503.23;101327;1341;61486;-84
2022/12/04 07:36:19;;;;;;;;;;;;;;;14.08;48.93;102504.82;101374;1341;73563;-83
2022/12/04 07:38:44;;;;;;;;;;;;;;;14.07;48.90;102509.24;101705;1338;61289;-83
2022/12/04 07:41:10;;;;;;;;;;;;;;;14.07;48.95;102515.98;101738;1333;61424;-84
2022/12/04 07:43:35;;;;;;;;;;;;;;;14.07;48.96;102516.86;101720;1339;61445;-83
2022/12/04 07:46:05;;;;;;;;;;;;;;;14.07;48.99;102515.98;101725;1336;61420;-84
2022/12/04 07:48:30;;;;;;;;;;;;;;;14.08;48.91;102517.92;101712;1333;74538;-84
2022/12/04 07:51:25;;;;;;;;;;;;;;;14.07;48.99;102518.46;101740;1341;61562;-84
2022/12/04 07:53:51;;;;;;;;;;;;;;;14.07;48.92;102522.34;101570;1344;61305;-84
2022/12/04 07:56:17;;;;;;;;;;;;;;;14.08;48.93;102521.82;101657;1339;72715;-84
2022/12/04 07:58:43;;;;;;;;;;;;;;;14.07;49.00;102523.59;101801;1332;59741;-84
2022/12/04 08:01:12;;;;;;;;;;;;;;;14.08;48.96;102526.60;101827;1333;61531;-83
2022/12/04 08:03:38;;;;;;;;;;;;;;;14.07;48.98;102525.54;101808;1335;61412;-83
2022/12/04 08:06:03;;;;;;;;;;;;;;;14.08;48.99;102524.46;101834;1339;60146;-83
2022/12/04 08:08:28;;;;;;;;;;;;;;;14.08;48.98;102527.84;101803;1340;61472;-83
2022/12/04 08:10:54;;;;;;;;;;;;;;;14.08;48.99;102531.38;101879;1332;61284;-84
2022/12/04 08:13:19;;;;;;;;;;;;;;;14.07;48.97;102529.08;101811;1335;61407;-83
2022/12/04 08:15:45;;;;;;;;;;;;;;;14.08;48.99;102529.77;101886;1331;61334;-83
2022/12/04 08:18:10;;;;;;;;;;;;;;;14.07;49.01;102527.66;101801;1340;61291;-83
2022/12/04 08:20:36;;;;;;;;;;;;;;;14.08;49.03;102527.13;101840;1332;61395;-83
2022/12/04 08:23:01;;;;;;;;;;;;;;;14.08;49.00;102528.90;101821;1335;60059;-83
2022/12/04 08:25:27;;;;;;;;;;;;;;;14.07;48.96;102529.79;101808;1335;61551;-83
2022/12/04 08:27:53;;;;;;;;;;;;;;;14.08;48.99;102532.27;101858;1335;61282;-83
2022/12/04 08:30:19;;;;;;;;;;;;;;;14.07;48.96;102529.79;101863;1336;72583;-83
2022/12/04 08:32:44;;;;;;;;;;;;;;;14.07;48.98;102525.54;102052;1329;61353;-83
2022/12/04 08:35:10;;;;;;;;;;;;;;;14.07;48.97;102523.41;102075;1327;61308;-83
2022/12/04 08:37:35;;;;;;;;;;;;;;;14.07;49.04;102526.09;101996;1329;61956;-83
2022/12/04 08:40:01;;;;;;;;;;;;;;;14.07;49.07;102521.48;102127;1329;61366;-83
2022/12/04 08:42:26;;;;;;;;;;;;;;;14.07;49.07;102519.34;102048;1333;73391;-83
2022/12/04 08:44:52;;;;;;;;;;;;;;;14.07;49.06;102517.59;102041;1330;61837;-84
2022/12/04 08:47:17;;;;;;;;;;;;;;;14.07;49.02;102513.69;102054;1329;61325;-84
2022/12/04 08:49:43;;;;;;;;;;;;;;;14.07;49.02;102515.29;101974;1329;59394;-84
2022/12/04 08:52:08;;;;;;;;;;;;;;;14.07;49.10;102516.15;102115;1327;61431;-83
2022/12/04 08:54:34;;;;;;;;;;;;;;;14.07;49.06;102515.45;101988;1329;61319;-83
2022/12/04 08:56:59;;;;;;;;;;;;;;;14.07;49.06;102515.29;101995;1329;61332;-84
2022/12/04 08:59:26;;;;;;;;;;;;;;;14.06;49.05;102512.45;101991;1335;61340;-85
2022/12/04 09:01:53;;;;;;;;;;;;;;;14.06;49.09;102505.90;102082;1326;61391;-82
2022/12/04 09:04:19;;;;;;;;;;;;;;;14.06;49.08;102500.23;102061;1335;61286;-83
2022/12/04 09:06:44;;;;;;;;;;;;;;;14.06;49.21;102494.75;101982;1330;61763;-83
2022/12/04 09:09:09;;;;;;;;;;;;;;;14.06;49.04;102500.07;101993;1332;61405;-82
2022/12/04 09:11:35;;;;;;;;;;;;;;;14.07;49.07;102503.60;102006;1329;61531;-83
2022/12/04 09:14:01;;;;;;;;;;;;;;;14.06;49.08;102500.95;102027;1329;61401;-82
2022/12/04 09:16:27;;;;;;;;;;;;;;;14.06;49.12;102495.63;102070;1330;61338;-83
2022/12/04 09:18:53;;;;;;;;;;;;;;;14.06;49.08;102491.21;102077;1329;61210;-83
2022/12/04 09:21:19;;;;;;;;;;;;;;;14.06;49.10;102492.09;102093;1326;61270;-84
2022/12/04 09:23:44;;;;;;;;;;;;;;;14.06;49.07;102489.63;102053;1333;61380;-83
2022/12/04 09:26:23;;;;;;;;;;;;;;;14.06;49.11;102490.52;102091;1332;61326;-83
2022/12/04 09:28:49;;;;;;;;;;;;;;;14.06;49.06;102485.20;102092;1321;73371;-83
2022/12/04 09:31:14;;;;;;;;;;;;;;;14.06;49.08;102486.97;101980;1329;61442;-83
2022/12/04 09:33:40;;;;;;;;;;;;;;;14.05;49.13;102483.25;102074;1329;61300;-83
2022/12/04 09:36:32;;;;;;;;;;;;;;;14.05;49.16;102479.89;102004;1329;61746;-84
2022/12/04 09:38:57;;;;;;;;;;;;;;;14.05;49.15;102476.17;101845;1341;72777;-84
2022/12/04 09:41:25;;;;;;;;;;;;;;;14.05;49.18;102477.93;101725;1339;61386;-84
2022/12/04 09:43:56;;;;;;;;;;;;;;;14.05;49.10;102474.77;101758;1334;61174;-84
2022/12/04 09:46:38;;;;;;;;;;;;;;;14.05;49.11;102467.48;101757;1338;61162;-84
2022/12/04 09:49:06;;;;;;;;;;;;;;;14.06;49.10;102462.35;101751;1342;73510;-84
2022/12/04 09:51:31;;;;;;;;;;;;;;;14.05;49.20;102457.59;101755;1335;74866;-84
2022/12/04 09:54:01;;;;;;;;;;;;;;;14.05;49.13;102462.19;101755;1339;61362;-84
2022/12/04 09:56:28;;;;;;;;;;;;;;;14.05;49.14;102464.66;101744;1343;61332;-83
2022/12/04 09:58:58;;;;;;;;;;;;;;;14.05;49.13;102465.71;101759;1340;61915;-83
2022/12/04 10:01:26;;;;;;;;;;;;;;;14.05;49.12;102462.36;101769;1335;75462;-83
2022/12/04 10:03:51;;;;;;;;;;;;;;;14.05;49.13;102463.08;101778;1341;61211;-83
2022/12/04 10:06:18;;;;;;;;;;;;;;;14.05;49.13;102456.88;101770;1335;61391;-83
2022/12/04 10:08:44;;;;;;;;;;;;;;;14.05;49.13;102451.56;101751;1341;61324;-84
2022/12/04 10:11:21;;;;;;;;;;;;;;;14.05;49.13;102445.55;101736;1340;61434;-84
2022/12/04 10:13:53;;;;;;;;;;;;;;;14.05;49.18;102440.94;101800;1338;61274;-84
2022/12/04 10:16:23;;;;;;;;;;;;;;;14.05;49.18;102436.88;101982;1333;61320;-83
2022/12/04 10:19:04;;;;;;;;;;;;;;;14.05;49.16;102435.80;102056;1329;72652;-83
2022/12/04 10:21:29;;;;;;;;;;;;;;;14.05;49.22;102432.09;102129;1326;75477;-82
2022/12/04 10:24:21;;;;;;;;;;;;;;;14.04;49.23;102426.97;102066;1329;61290;-83
2022/12/04 10:26:47;;;;;;;;;;;;;;;14.04;49.19;102425.20;101995;1326;61148;-83
2022/12/04 10:29:17;;;;;;;;;;;;;;;14.04;49.20;102427.51;102053;1330;61153;-83
2022/12/04 10:31:42;;;;;;;;;;;;;;;14.04;49.22;102428.91;102019;1329;75557;-84
2022/12/04 10:34:27;;;;;;;;;;;;;;;14.04;49.24;102425.91;101982;1334;61385;-83
2022/12/04 10:36:53;;;;;;;;;;;;;;;14.04;49.22;102419.54;101959;1322;61054;-83
2022/12/04 10:39:23;;;;;;;;;;;;;;;14.04;49.24;102412.65;102042;1333;61733;-83
2022/12/04 10:41:55;;;;;;;;;;;;;;;14.04;49.28;102413.35;101945;1329;74548;-83
2022/12/04 10:44:20;;;;;;;;;;;;;;;14.04;49.26;102412.29;102105;1321;61593;-83
2022/12/04 10:46:46;;;;;;;;;;;;;;;14.04;49.26;102405.73;102063;1330;61309;-83
2022/12/04 10:49:11;;;;;;;;;;;;;;;14.05;49.30;102406.59;102047;1330;61392;-83
2022/12/04 10:51:40;;;;;;;;;;;;;;;14.05;49.27;102408.73;102064;1326;61391;-84
2022/12/04 10:54:20;;;;;;;;;;;;;;;14.04;49.26;102409.09;102022;1333;61321;-83
2022/12/04 10:57:05;;;;;;;;;;;;;;;14.04;49.33;102406.80;102054;1329;61195;-84
2022/12/04 10:59:30;;;;;;;;;;;;;;;14.04;49.30;102402.55;102067;1327;73662;-83
2022/12/04 11:01:59;;;;;;;;;;;;;;;14.04;49.36;102401.48;102029;1333;75415;-83
2022/12/04 11:04:24;;;;;;;;;;;;;;;14.04;49.37;102401.13;101974;1333;61337;-83
2022/12/04 11:06:50;;;;;;;;;;;;;;;14.03;49.31;102402.55;101987;1333;61308;-84
2022/12/04 11:09:21;;;;;;;;;;;;;;;14.04;49.35;102402.55;101990;1329;59618;-84
2022/12/04 11:11:46;;;;;;;;;;;;;;;14.04;49.36;102399.54;102073;1326;74710;-84
2022/12/04 11:14:16;;;;;;;;;;;;;;;14.04;49.34;102400.06;102066;1331;61426;-84
2022/12/04 11:16:45;;;;;;;;;;;;;;;14.04;49.37;102396.89;102001;1335;61258;-84
2022/12/04 11:19:24;;;;;;;;;;;;;;;14.03;49.34;102393.88;102078;1322;72537;-83
2022/12/04 11:21:49;;;;;;;;;;;;;;;14.03;49.29;102389.80;101992;1333;74557;-83
2022/12/04 11:24:21;;;;;;;;;;;;;;;14.04;49.33;102386.45;102078;1333;61450;-84
2022/12/04 11:27:10;;;;;;;;;;;;;;;14.03;49.35;102376.18;102066;1326;61194;-84
2022/12/04 11:29:36;;;;;;;;;;;;;;;14.04;49.38;102374.59;101806;1338;72065;-84
2022/12/04 11:32:02;;;;;;;;;;;;;;;14.03;49.36;102375.11;101769;1334;61325;-84
2022/12/04 11:34:32;;;;;;;;;;;;;;;14.03;49.36;102377.06;101772;1333;61321;-84
2022/12/04 11:36:57;;;;;;;;;;;;;;;14.03;49.36;102372.82;101765;1333;61285;-85
2022/12/04 11:39:23;;;;;;;;;;;;;;;14.03;49.34;102372.29;101751;1339;61277;-84
2022/12/04 11:41:57;;;;;;;;;;;;;;;14.03;49.36;102369.27;101821;1336;60056;-84
2022/12/04 11:44:24;;;;;;;;;;;;;;;14.04;49.37;102368.92;101763;1336;61272;-83
2022/12/04 11:46:51;;;;;;;;;;;;;;;14.03;49.42;102372.83;101770;1342;61279;-84
2022/12/04 11:49:20;;;;;;;;;;;;;;;14.03;49.39;102375.12;101726;1339;73439;-83
2022/12/04 11:51:49;;;;;;;;;;;;;;;14.03;49.38;102366.98;101756;1339;74514;-84
2022/12/04 11:54:50;;;;;;;;;;;;;;;14.03;49.36;102367.16;101747;1335;61000;-84
2022/12/04 11:57:35;;;;;;;;;;;;;;;14.02;49.44;102359.01;101491;1343;61345;-84
2022/12/04 12:00:39;;;;;;;;;;;;;;;14.03;49.41;102357.43;101481;1341;72697;-83
2022/12/04 12:03:13;;;;;;;;;;;;;;;14.02;49.43;102354.04;100818;1346;74475;-84
2022/12/04 12:05:41;;;;;;;;;;;;;;;14.02;49.41;102346.80;100855;1345;61336;-83
2022/12/04 12:08:12;;;;;;;;;;;;;;;14.02;49.41;102340.95;101218;1343;61630;-84
2022/12/04 12:10:56;;;;;;;;;;;;;;;14.02;49.42;102342.37;101243;1340;72583;-84
2022/12/04 12:13:24;;;;;;;;;;;;;;;14.03;49.45;102334.05;101172;1348;75695;-84
2022/12/04 12:15:55;;;;;;;;;;;;;;;14.02;49.47;102329.80;101296;1345;61371;-85
2022/12/04 12:18:36;;;;;;;;;;;;;;;14.02;49.47;102334.05;101302;1338;61184;-84
2022/12/04 12:21:06;;;;;;;;;;;;;;;14.02;49.44;102331.94;101225;1344;73611;-82
2022/12/04 12:23:51;;;;;;;;;;;;;;;14.02;49.43;102332.83;101205;1347;74479;-83
2022/12/04 12:26:17;;;;;;;;;;;;;;;14.02;49.49;102335.99;100978;1340;61633;-83
2022/12/04 12:28:55;;;;;;;;;;;;;;;14.01;49.44;102333.19;101275;1347;61312;-82
2022/12/04 12:31:39;;;;;;;;;;;;;;;14.01;49.49;102330.02;101401;1343;73597;-82
2022/12/04 12:34:07;;;;;;;;;;;;;;;14.01;49.46;102337.25;101871;1317;74538;-83
2022/12/04 12:36:34;;;;;;;;;;;;;;;14.02;49.53;102343.98;101995;1335;61169;-83
2022/12/04 12:39:05;;;;;;;;;;;;;;;14.01;49.51;102343.99;102118;1332;61275;-82
2022/12/04 12:41:35;;;;;;;;;;;;;;;14.02;49.48;102340.42;102061;1335;72619;-82
2022/12/04 12:44:06;;;;;;;;;;;;;;;14.01;49.58;102337.79;102056;1327;75922;-83
2022/12/04 12:46:50;;;;;;;;;;;;;;;14.01;49.54;102335.14;102062;1328;61596;-83
2022/12/04 12:49:34;;;;;;;;;;;;;;;14.02;49.51;102337.25;102077;1329;61167;-83